createdAt,value
2022-12-25T00:01:15.483Z,33.70
2022-12-25T00:03:44.068Z,27.75
2022-12-25T00:06:12.755Z,36.58
2022-12-25T00:08:41.757Z,28.85
2022-12-25T00:11:14.199Z,32.83
2022-12-25T00:13:44.201Z,48.30
2022-12-25T00:16:19.504Z,58.70
2022-12-25T00:18:49.246Z,52.80
2022-12-25T00:21:17.879Z,46.85
2022-12-25T00:23:46.309Z,61.63
2022-12-25T00:26:17.756Z,50.97
2022-12-25T00:28:46.310Z,44.08
2022-12-25T00:31:17.657Z,66.88
2022-12-25T00:33:47.681Z,47.03
2022-12-25T00:36:18.142Z,70.13
2022-12-25T00:38:47.704Z,47.67
2022-12-25T00:41:42.369Z,83.70
2022-12-25T00:44:13.479Z,52.38
2022-12-25T00:46:43.180Z,44.47
2022-12-25T00:49:12.992Z,37.67
2022-12-25T00:51:41.421Z,90.15
2022-12-25T00:54:10.452Z,78.22
2022-12-25T00:56:38.882Z,47.70
2022-12-25T00:59:07.391Z,45.83
2022-12-25T01:01:35.947Z,60.08
2022-12-25T01:04:04.510Z,36.83
2022-12-25T01:06:33.519Z,47.55
2022-12-25T01:09:20.426Z,39.35
2022-12-25T01:11:48.819Z,39.13
2022-12-25T01:14:17.486Z,32.63
2022-12-25T01:16:46.090Z,36.25
2022-12-25T01:19:14.618Z,45.05
2022-12-25T01:21:43.061Z,52.72
2022-12-25T01:24:11.541Z,35.60
2022-12-25T01:26:40.014Z,49.03
2022-12-25T01:29:08.416Z,49.95
2022-12-25T01:31:37.168Z,35.72
2022-12-25T01:34:05.587Z,57.13
2022-12-25T01:36:33.958Z,60.38
2022-12-25T01:39:02.445Z,48.55
2022-12-25T01:41:30.919Z,46.40
2022-12-25T01:44:13.749Z,40.00
2022-12-25T01:46:42.739Z,42.17
2022-12-25T01:49:23.563Z,36.20
2022-12-25T01:52:11.505Z,43.83
2022-12-25T01:54:51.395Z,40.70
2022-12-25T01:57:26.565Z,37.97
2022-12-25T01:59:56.842Z,36.97
2022-12-25T02:02:25.783Z,36.10
2022-12-25T02:05:02.543Z,54.13
2022-12-25T02:07:34.519Z,48.40
2022-12-25T02:10:03.042Z,39.08
2022-12-25T02:12:34.812Z,39.22
2022-12-25T02:15:11.053Z,37.42
2022-12-25T02:17:56.402Z,48.97
2022-12-25T02:21:00.733Z,120.28
2022-12-25T02:23:59.722Z,64.63
2022-12-25T02:26:52.271Z,38.42
2022-12-25T02:29:38.113Z,49.55
2022-12-25T02:32:15.234Z,70.72
2022-12-25T02:34:58.811Z,76.07
2022-12-25T02:37:47.140Z,64.70
2022-12-25T02:40:38.180Z,61.05
2022-12-25T02:43:52.642Z,140.32
2022-12-25T02:46:43.614Z,107.22
2022-12-25T02:49:35.719Z,65.97
2022-12-25T02:52:36.449Z,83.97
2022-12-25T02:55:36.219Z,51.78
2022-12-25T02:58:28.978Z,51.35
2022-12-25T03:01:26.688Z,67.28
2022-12-25T03:04:15.673Z,77.97
2022-12-25T03:06:58.117Z,57.55
2022-12-25T03:09:48.757Z,82.60
2022-12-25T03:12:51.773Z,52.90
2022-12-25T03:15:40.061Z,63.30
2022-12-25T03:18:15.093Z,54.80
2022-12-25T03:21:02.088Z,60.35
2022-12-25T03:23:53.527Z,52.42
2022-12-25T03:26:40.177Z,56.45
2022-12-25T03:29:08.611Z,60.38
2022-12-25T03:31:56.955Z,81.20
2022-12-25T03:34:54.861Z,51.10
2022-12-25T03:38:09.916Z,55.78
2022-12-25T03:41:24.112Z,42.95
2022-12-25T03:44:33.885Z,71.50
2022-12-25T03:47:36.248Z,77.05
2022-12-25T03:50:33.599Z,83.30
2022-12-25T03:53:24.950Z,49.90
2022-12-25T03:56:12.848Z,51.38
2022-12-25T03:59:11.221Z,92.80
2022-12-25T04:01:58.065Z,93.63
2022-12-25T04:04:44.945Z,94.00
2022-12-25T04:07:31.772Z,120.65
2022-12-25T04:10:18.620Z,143.70
2022-12-25T04:13:05.543Z,103.68
2022-12-25T04:15:52.445Z,112.95
2022-12-25T04:18:39.294Z,83.70
2022-12-25T04:21:26.131Z,83.07
2022-12-25T04:24:12.801Z,55.63
2022-12-25T04:26:59.732Z,58.80
2022-12-25T04:29:46.699Z,76.07
2022-12-25T04:32:33.712Z,138.52
2022-12-25T04:35:20.516Z,77.40
2022-12-25T04:37:49.002Z,62.25
2022-12-25T04:40:17.936Z,56.20
2022-12-25T04:42:46.353Z,59.45
2022-12-25T04:45:14.889Z,52.60
2022-12-25T04:47:43.276Z,54.53
2022-12-25T04:50:12.011Z,68.25
2022-12-25T04:52:42.267Z,58.30
2022-12-25T04:55:12.362Z,52.38
2022-12-25T04:57:41.045Z,54.13
2022-12-25T05:00:10.272Z,50.28
2022-12-25T05:02:38.807Z,42.05
2022-12-25T05:05:07.635Z,45.92
2022-12-25T05:07:36.157Z,41.17
2022-12-25T05:10:04.752Z,40.58
2022-12-25T05:12:33.199Z,33.63
2022-12-25T05:15:01.635Z,33.38
2022-12-25T05:17:30.260Z,27.48
2022-12-25T05:19:58.640Z,34.53
2022-12-25T05:22:27.143Z,27.98
2022-12-25T05:24:55.535Z,25.70
2022-12-25T05:27:24.012Z,25.60
2022-12-25T05:29:52.568Z,26.25
2022-12-25T05:32:20.974Z,27.73
2022-12-25T05:34:49.408Z,25.13
2022-12-25T05:37:17.831Z,30.65
2022-12-25T05:39:46.215Z,27.88
2022-12-25T05:42:14.575Z,26.63
2022-12-25T05:44:42.983Z,23.13
2022-12-25T05:47:11.398Z,24.90
2022-12-25T05:49:39.788Z,23.15
2022-12-25T05:52:08.201Z,21.80
2022-12-25T05:54:37.126Z,21.77
2022-12-25T05:57:05.581Z,25.58
2022-12-25T05:59:34.661Z,24.77
2022-12-25T06:02:03.224Z,25.33
2022-12-25T06:04:31.657Z,46.75
2022-12-25T06:07:00.079Z,44.15
2022-12-25T06:09:28.525Z,27.60
2022-12-25T06:11:56.916Z,37.72
2022-12-25T06:14:25.532Z,37.38
2022-12-25T06:16:54.830Z,29.92
2022-12-25T06:19:23.297Z,32.35
2022-12-25T06:21:55.379Z,31.48
2022-12-25T06:24:24.694Z,27.88
2022-12-25T06:26:53.172Z,26.15
2022-12-25T06:29:21.645Z,29.33
2022-12-25T06:31:50.558Z,29.70
2022-12-25T06:34:18.974Z,27.00
2022-12-25T06:36:47.397Z,33.75
2022-12-25T06:39:15.772Z,29.20
2022-12-25T06:41:44.190Z,29.33
2022-12-25T06:44:12.639Z,30.23
2022-12-25T06:46:41.406Z,30.38
2022-12-25T06:49:10.961Z,43.42
2022-12-25T06:51:39.557Z,28.13
2022-12-25T06:54:08.044Z,29.88
2022-12-25T06:56:36.514Z,29.73
2022-12-25T06:59:10.313Z,36.05
2022-12-25T07:01:48.916Z,29.10
2022-12-25T07:04:32.873Z,31.33
2022-12-25T07:07:08.018Z,39.60
2022-12-25T07:09:39.545Z,47.50
2022-12-25T07:12:15.802Z,37.83
2022-12-25T07:14:45.198Z,63.55
2022-12-25T07:17:13.633Z,31.92
2022-12-25T07:19:45.189Z,41.88
2022-12-25T07:22:14.817Z,36.08
2022-12-25T07:24:43.392Z,32.80
2022-12-25T07:27:11.876Z,29.20
2022-12-25T07:29:40.684Z,32.78
2022-12-25T07:32:09.199Z,27.73
2022-12-25T07:34:37.676Z,34.70
2022-12-25T07:37:06.098Z,62.05
2022-12-25T07:39:36.112Z,33.58
2022-12-25T07:42:04.593Z,41.75
2022-12-25T07:44:33.025Z,31.17
2022-12-25T07:47:01.556Z,46.78
2022-12-25T07:49:29.955Z,36.53
2022-12-25T07:51:58.620Z,33.75
2022-12-25T07:54:27.028Z,38.15
2022-12-25T07:56:55.517Z,42.08
2022-12-25T07:59:24.020Z,47.35
2022-12-25T08:01:52.641Z,45.17
2022-12-25T08:04:21.196Z,39.17
2022-12-25T08:06:49.647Z,57.80
2022-12-25T08:09:18.023Z,44.33
2022-12-25T08:11:47.765Z,38.47
2022-12-25T08:14:16.563Z,39.53
2022-12-25T08:16:45.414Z,43.35
2022-12-25T08:19:15.298Z,33.63
2022-12-25T08:21:43.732Z,30.08
2022-12-25T08:24:12.524Z,35.38
2022-12-25T08:26:40.896Z,37.35
2022-12-25T08:29:09.332Z,45.72
2022-12-25T08:31:44.097Z,40.42
2022-12-25T08:34:14.677Z,30.75
2022-12-25T08:36:43.079Z,34.97
2022-12-25T08:39:11.705Z,40.15
2022-12-25T08:41:40.190Z,32.85
2022-12-25T08:44:08.641Z,39.72
2022-12-25T08:46:37.593Z,33.08
2022-12-25T08:49:06.234Z,30.90
2022-12-25T08:51:35.089Z,40.92
2022-12-25T08:54:03.465Z,34.50
2022-12-25T08:56:31.960Z,35.45
2022-12-25T08:59:00.334Z,36.35
2022-12-25T09:01:28.837Z,40.92
2022-12-25T09:03:57.377Z,40.83
2022-12-25T09:06:25.767Z,46.20
2022-12-25T09:08:54.228Z,47.70
2022-12-25T09:11:23.192Z,67.70
2022-12-25T09:13:52.036Z,63.83
2022-12-25T09:16:23.560Z,96.05
2022-12-25T09:18:52.413Z,52.17
2022-12-25T09:21:21.012Z,68.03
2022-12-25T09:23:49.550Z,50.97
2022-12-25T09:26:19.832Z,79.78
2022-12-25T09:28:52.063Z,58.03
2022-12-25T09:31:23.078Z,44.42
2022-12-25T09:33:52.672Z,52.72
2022-12-25T09:36:24.056Z,40.55
2022-12-25T09:38:52.802Z,52.25
2022-12-25T09:41:30.240Z,58.28
2022-12-25T09:44:01.835Z,38.55
2022-12-25T09:46:39.660Z,34.72
2022-12-25T09:49:17.819Z,46.03
2022-12-25T09:51:49.263Z,37.90
2022-12-25T09:54:45.925Z,33.97
2022-12-25T09:57:16.050Z,55.08
2022-12-25T09:59:45.953Z,44.38
2022-12-25T10:02:51.668Z,30.00
2022-12-25T10:05:58.792Z,36.33
2022-12-25T10:09:04.796Z,37.45
2022-12-25T10:12:05.139Z,31.52
2022-12-25T10:15:06.851Z,36.55
2022-12-25T10:18:02.224Z,45.53
2022-12-25T10:20:52.514Z,30.50
2022-12-25T10:23:36.375Z,32.30
2022-12-25T10:26:07.603Z,26.88
2022-12-25T10:28:43.762Z,35.30
2022-12-25T10:31:30.101Z,25.95
2022-12-25T10:34:00.213Z,32.97
2022-12-25T10:36:30.699Z,36.58
2022-12-25T10:38:59.382Z,38.35
2022-12-25T10:41:39.934Z,49.25
2022-12-25T10:44:25.046Z,38.50
2022-12-25T10:46:57.323Z,37.67
2022-12-25T10:49:30.741Z,42.35
2022-12-25T10:51:59.447Z,49.78
2022-12-25T10:54:34.600Z,50.60
2022-12-25T10:57:18.334Z,36.90
2022-12-25T10:59:52.739Z,27.85
2022-12-25T11:02:25.933Z,27.38
2022-12-25T11:05:16.485Z,34.20
2022-12-25T11:07:55.172Z,29.60
2022-12-25T11:10:38.191Z,24.00
2022-12-25T11:13:21.145Z,26.63
2022-12-25T11:15:51.660Z,29.90
2022-12-25T11:18:24.033Z,33.15
2022-12-25T11:20:54.844Z,26.63
2022-12-25T11:23:25.689Z,32.05
2022-12-25T11:26:12.500Z,31.80
2022-12-25T11:28:43.057Z,33.20
2022-12-25T11:31:40.291Z,35.78
2022-12-25T11:34:30.969Z,33.75
2022-12-25T11:37:02.041Z,28.30
2022-12-25T11:39:39.060Z,35.78
2022-12-25T11:42:33.685Z,29.92
2022-12-25T11:45:08.253Z,34.65
2022-12-25T11:47:45.999Z,32.55
2022-12-25T11:50:38.948Z,36.58
2022-12-25T11:53:27.363Z,33.33
2022-12-25T11:56:07.209Z,40.03
2022-12-25T11:58:42.438Z,39.55
2022-12-25T12:01:27.439Z,40.35
2022-12-25T12:03:56.136Z,45.90
2022-12-25T12:06:47.355Z,33.38
2022-12-25T12:09:34.840Z,32.90
2022-12-25T12:12:29.382Z,33.78
2022-12-25T12:15:02.193Z,44.85
2022-12-25T12:17:30.826Z,33.60
2022-12-25T12:19:59.729Z,32.58
2022-12-25T12:22:29.751Z,34.30
2022-12-25T12:25:05.630Z,32.92
2022-12-25T12:27:40.172Z,34.47
2022-12-25T12:30:24.073Z,39.42
2022-12-25T12:32:55.775Z,36.30
2022-12-25T12:35:39.595Z,31.02
2022-12-25T12:38:20.478Z,35.75
2022-12-25T12:41:04.692Z,35.00
2022-12-25T12:43:36.313Z,32.72
2022-12-25T12:46:28.060Z,41.30
2022-12-25T12:49:18.237Z,33.00
2022-12-25T12:51:46.683Z,28.90
2022-12-25T12:54:23.676Z,27.48
2022-12-25T12:56:58.995Z,32.58
2022-12-25T12:59:34.434Z,26.73
2022-12-25T13:02:36.779Z,29.98
2022-12-25T13:05:17.474Z,30.42
2022-12-25T13:08:00.869Z,29.85
2022-12-25T13:10:37.220Z,35.00
2022-12-25T13:13:14.007Z,26.40
2022-12-25T13:15:46.778Z,27.33
2022-12-25T13:18:15.946Z,29.45
2022-12-25T13:21:00.712Z,27.25
2022-12-25T13:23:33.306Z,33.35
2022-12-25T13:26:07.568Z,34.15
2022-12-25T13:28:37.712Z,31.27
2022-12-25T13:31:19.598Z,35.60
2022-12-25T13:34:07.679Z,33.45
2022-12-25T13:36:40.990Z,33.08
2022-12-25T13:39:15.000Z,27.77
2022-12-25T13:42:05.596Z,30.80
2022-12-25T13:44:49.043Z,25.83
2022-12-25T13:47:22.303Z,29.77
2022-12-25T13:49:51.926Z,25.63
2022-12-25T13:52:35.792Z,28.70
2022-12-25T13:55:12.235Z,29.35
2022-12-25T13:57:44.755Z,25.05
2022-12-25T14:00:23.303Z,23.35
2022-12-25T14:02:52.849Z,27.30
2022-12-25T14:05:42.739Z,23.00
2022-12-25T14:08:17.915Z,22.40
2022-12-25T14:10:50.288Z,18.65
2022-12-25T14:13:20.986Z,18.15
2022-12-25T14:15:51.297Z,24.88
2022-12-25T14:18:22.338Z,20.52
2022-12-25T14:20:59.959Z,17.90
2022-12-25T14:23:31.324Z,22.38
2022-12-25T14:25:59.804Z,23.40
2022-12-25T14:28:34.926Z,18.92
2022-12-25T14:31:04.355Z,20.52
2022-12-25T14:33:39.303Z,20.08
2022-12-25T14:36:08.859Z,21.88
2022-12-25T14:38:37.260Z,19.27
2022-12-25T14:41:34.188Z,19.40
2022-12-25T14:44:23.971Z,17.42
2022-12-25T14:46:52.601Z,18.10
2022-12-25T14:49:26.088Z,20.33
2022-12-25T14:51:54.546Z,22.75
2022-12-25T14:54:24.508Z,20.75
2022-12-25T14:56:56.895Z,23.05
2022-12-25T14:59:28.912Z,20.70
2022-12-25T15:02:04.693Z,23.20
2022-12-25T15:04:33.243Z,20.45
2022-12-25T15:07:10.358Z,19.98
2022-12-25T15:09:38.714Z,20.55
2022-12-25T15:12:07.495Z,24.63
2022-12-25T15:14:39.223Z,27.15
2022-12-25T15:17:07.703Z,23.00
2022-12-25T15:19:38.992Z,19.77
2022-12-25T15:22:07.898Z,13.35
2022-12-25T15:24:36.611Z,14.30
2022-12-25T15:27:06.243Z,14.40
2022-12-25T15:32:25.070Z,13.35
2022-12-25T15:34:54.671Z,31.38
2022-12-25T15:37:23.063Z,38.35
2022-12-25T15:39:51.502Z,24.42
2022-12-25T15:42:23.444Z,30.98
2022-12-25T15:44:52.509Z,39.55
2022-12-25T15:47:21.115Z,30.90
2022-12-25T15:49:49.905Z,15.25
2022-12-25T15:52:19.007Z,16.88
2022-12-25T15:54:47.450Z,18.02
2022-12-25T15:57:21.981Z,23.05
2022-12-25T15:59:50.448Z,14.95
2022-12-25T16:02:21.958Z,13.90
2022-12-25T16:04:51.819Z,21.30
2022-12-25T16:07:23.903Z,16.77
2022-12-25T16:09:53.014Z,15.13
2022-12-25T16:12:21.521Z,20.65
2022-12-25T16:14:49.995Z,17.35
2022-12-25T16:17:18.452Z,13.93
2022-12-25T16:19:46.824Z,12.40
2022-12-25T16:22:21.080Z,17.90
2022-12-25T16:24:50.546Z,13.88
2022-12-25T16:27:19.438Z,18.95
2022-12-25T16:29:48.397Z,23.10
2022-12-25T16:32:17.656Z,22.05
2022-12-25T16:34:46.056Z,19.95
2022-12-25T16:37:14.491Z,15.98
2022-12-25T16:39:42.887Z,19.10
2022-12-25T16:42:11.261Z,13.10
2022-12-25T16:44:39.668Z,21.23
2022-12-25T16:47:08.026Z,28.17
2022-12-25T16:49:36.936Z,23.02
2022-12-25T16:52:05.952Z,12.82
2022-12-25T16:54:34.345Z,34.42
2022-12-25T16:57:02.734Z,22.85
2022-12-25T16:59:31.756Z,20.33
2022-12-25T17:02:00.410Z,11.80
2022-12-25T17:04:29.160Z,12.85
2022-12-25T17:06:57.847Z,11.63
2022-12-25T17:09:26.275Z,11.15
2022-12-25T17:11:54.640Z,9.70
2022-12-25T17:14:23.083Z,8.07
2022-12-25T17:16:52.080Z,6.75
2022-12-25T17:19:22.469Z,5.60
2022-12-25T17:21:51.522Z,6.63
2022-12-25T17:24:19.989Z,5.15
2022-12-25T17:26:48.851Z,7.70
2022-12-25T17:29:21.926Z,5.00
2022-12-25T17:31:51.613Z,5.75
2022-12-25T17:34:20.352Z,6.40
2022-12-25T17:36:49.002Z,7.88
2022-12-25T17:39:17.378Z,9.10
2022-12-25T17:41:45.971Z,8.45
2022-12-25T17:44:14.341Z,10.35
2022-12-25T17:46:42.939Z,8.43
2022-12-25T17:49:16.965Z,10.50
2022-12-25T17:51:45.609Z,8.90
2022-12-25T17:54:14.464Z,9.10
2022-12-25T17:56:42.901Z,9.45
2022-12-25T17:59:19.021Z,15.45
2022-12-25T18:01:48.931Z,9.57
2022-12-25T18:04:17.528Z,8.98
2022-12-25T18:06:45.984Z,8.43
2022-12-25T18:09:14.497Z,8.57
2022-12-25T18:11:44.459Z,7.50
2022-12-25T18:14:15.493Z,6.70
2022-12-25T18:16:45.828Z,8.50
2022-12-25T18:19:15.869Z,9.57
2022-12-25T18:21:44.256Z,8.80
2022-12-25T18:24:12.708Z,6.80
2022-12-25T18:26:41.188Z,5.87
2022-12-25T18:29:09.678Z,9.80
2022-12-25T18:31:38.190Z,30.60
2022-12-25T18:34:06.636Z,35.57
2022-12-25T18:36:35.286Z,16.70
2022-12-25T18:39:03.698Z,44.23
2022-12-25T18:41:32.238Z,21.17
2022-12-25T18:44:01.238Z,13.10
2022-12-25T18:46:29.917Z,14.90
2022-12-25T18:48:58.903Z,22.60
2022-12-25T18:51:33.131Z,9.20
2022-12-25T18:54:05.274Z,30.60
2022-12-25T18:56:33.724Z,13.47
2022-12-25T18:59:02.309Z,4.70
2022-12-25T19:01:31.016Z,14.80
2022-12-25T19:04:05.130Z,20.43
2022-12-25T19:06:34.570Z,7.33
2022-12-25T19:09:09.704Z,6.53
2022-12-25T19:11:46.590Z,6.30
2022-12-25T19:14:16.189Z,15.60
2022-12-25T19:16:44.786Z,9.00
2022-12-25T19:19:13.590Z,12.37
2022-12-25T19:21:42.685Z,7.60
2022-12-25T19:24:11.235Z,5.00
2022-12-25T19:26:39.688Z,15.17
2022-12-25T19:29:08.082Z,6.67
2022-12-25T19:31:37.912Z,4.30
2022-12-25T19:34:07.563Z,9.77
2022-12-25T19:36:36.890Z,3.30
2022-12-25T19:39:07.503Z,4.90
2022-12-25T19:41:36.421Z,2.70
2022-12-25T19:44:06.279Z,6.03
2022-12-25T19:46:38.192Z,2.60
2022-12-25T19:49:06.891Z,3.17
2022-12-25T19:51:39.209Z,2.43
2022-12-25T19:54:08.919Z,2.23
2022-12-25T19:56:37.471Z,1.87
2022-12-25T19:59:06.064Z,2.10
2022-12-25T20:01:35.185Z,2.30
2022-12-25T20:04:04.031Z,2.67
2022-12-25T20:06:34.677Z,2.90
2022-12-25T20:09:07.381Z,2.03
2022-12-25T20:11:38.005Z,2.53
2022-12-25T20:14:08.746Z,1.53
2022-12-25T20:16:40.736Z,2.10
2022-12-25T20:19:11.080Z,2.20
2022-12-25T20:21:39.671Z,2.20
2022-12-25T20:24:11.759Z,1.80
2022-12-25T20:26:40.732Z,2.13
2022-12-25T20:29:09.407Z,2.17
2022-12-25T20:31:37.902Z,2.07
2022-12-25T20:34:09.600Z,2.53
2022-12-25T20:36:38.538Z,2.33
2022-12-25T20:39:12.256Z,2.37
2022-12-25T20:41:41.248Z,2.50
2022-12-25T20:44:10.853Z,2.20
2022-12-25T20:46:39.340Z,3.30
2022-12-25T20:49:08.326Z,2.90
2022-12-25T20:51:36.897Z,2.70
2022-12-25T20:54:10.802Z,3.27
2022-12-25T20:56:39.751Z,2.07
2022-12-25T20:59:08.317Z,1.80
2022-12-25T21:01:36.892Z,2.10
2022-12-25T21:04:05.418Z,1.90
2022-12-25T21:06:33.926Z,1.80
2022-12-25T21:09:02.569Z,1.87
2022-12-25T21:11:32.171Z,2.10
2022-12-25T21:14:01.028Z,2.00
2022-12-25T21:16:29.799Z,2.20
2022-12-25T21:18:58.271Z,2.07
2022-12-25T21:21:26.701Z,2.10
2022-12-25T21:23:58.126Z,2.40
2022-12-25T21:26:32.179Z,2.20
2022-12-25T21:29:03.325Z,1.70
2022-12-25T21:31:52.119Z,1.40
2022-12-25T21:34:20.560Z,2.83
2022-12-25T21:36:49.432Z,3.10
2022-12-25T21:39:17.943Z,2.50
2022-12-25T21:41:46.462Z,1.77
2022-12-25T21:44:14.898Z,2.87
2022-12-25T21:46:43.414Z,2.10
2022-12-25T21:49:12.175Z,3.43
2022-12-25T21:51:58.853Z,2.60
2022-12-25T21:54:27.276Z,3.53
2022-12-25T21:56:55.734Z,5.60
2022-12-25T21:59:24.493Z,9.57
2022-12-25T22:01:54.296Z,10.33
2022-12-25T22:04:24.438Z,6.40
2022-12-25T22:07:11.608Z,7.47
2022-12-25T22:09:40.073Z,3.30
2022-12-25T22:12:33.569Z,1.60
2022-12-25T22:15:07.134Z,1.93
2022-12-25T22:17:58.831Z,1.50
2022-12-25T22:20:35.417Z,5.30
2022-12-25T22:23:04.443Z,9.73
2022-12-25T22:25:33.039Z,5.90
2022-12-25T22:28:01.639Z,24.80
2022-12-25T22:30:30.745Z,8.07
2022-12-25T22:32:59.393Z,1.33
2022-12-25T22:35:27.918Z,4.83
2022-12-25T22:37:56.692Z,2.77
2022-12-25T22:40:25.304Z,2.43
2022-12-25T22:42:57.817Z,3.60
2022-12-25T22:45:26.339Z,2.27
2022-12-25T22:47:54.971Z,3.40
2022-12-25T22:50:24.103Z,3.40
2022-12-25T22:52:52.490Z,1.70
2022-12-25T22:55:20.965Z,13.87
2022-12-25T22:57:49.863Z,4.73
2022-12-25T23:00:18.383Z,2.57
2022-12-25T23:02:46.992Z,2.60
2022-12-25T23:05:15.871Z,4.13
2022-12-25T23:07:44.297Z,16.00
2022-12-25T23:10:12.750Z,2.93
2022-12-25T23:12:59.579Z,1.73
2022-12-25T23:15:28.949Z,2.37
2022-12-25T23:18:15.989Z,2.80
2022-12-25T23:21:02.593Z,15.03
2022-12-25T23:23:49.502Z,5.93
2022-12-25T23:26:22.287Z,35.33
2022-12-25T23:29:09.223Z,3.67
2022-12-25T23:31:40.498Z,2.43
2022-12-25T23:34:10.454Z,3.07
2022-12-25T23:36:38.872Z,2.70
2022-12-25T23:39:10.382Z,1.83
2022-12-25T23:41:43.389Z,5.77
2022-12-25T23:44:13.944Z,6.53
2022-12-25T23:46:52.665Z,5.60
2022-12-25T23:49:23.229Z,2.40
2022-12-25T23:51:52.298Z,1.43
2022-12-25T23:54:23.871Z,1.50
2022-12-25T23:56:52.888Z,1.83
2022-12-25T23:59:21.432Z,2.87
